Barboursville, West Virginia
Current Conditions -  °F | °C
As of 3:51 PM on Saturday 22 Nov 2014 (Local Time) from KHTS Reporting Station
Overcast Overcast  
Wind Chill: 61°   Ceiling: 11000
Heat Index: 61°   Visibility: 10mi
Dew Point: 29°   Wind: 8mph
Humidity: 30%   Direction: 200°SSW
Pressure: 30.18"   Gusts: NA
Location:  38.41°N, 82.29°W
Report Text: KHTS 222051Z 20007KT 10SM FEW085 OVC110 16/M02 A3018 RMK AO2 SLP223 T01611017 56024
Loading
Personal Weather Stations






























Interactive Weather Map New forecast layout! Learn more

10-Day Weather Forecast

Advertisements
Track Severe Weather on mobile